sensor_id;sensor_type;location;lat;lon;timestamp;temperature;humidity
30379;DHT22;17168;49.164;9.060;2023-05-21T00:01:28;19.40;74.60
30379;DHT22;17168;49.164;9.060;2023-05-21T00:04:00;19.40;74.90
30379;DHT22;17168;49.164;9.060;2023-05-21T00:06:33;19.30;75.20
30379;DHT22;17168;49.164;9.060;2023-05-21T00:09:09;19.30;75.50
30379;DHT22;17168;49.164;9.060;2023-05-21T00:11:43;19.10;76.10
30379;DHT22;17168;49.164;9.060;2023-05-21T00:14:16;19.10;76.90
30379;DHT22;17168;49.164;9.060;2023-05-21T00:16:48;19.00;77.50
30379;DHT22;17168;49.164;9.060;2023-05-21T00:19:20;18.90;78.10
30379;DHT22;17168;49.164;9.060;2023-05-21T00:21:53;18.90;78.90
30379;DHT22;17168;49.164;9.060;2023-05-21T00:24:28;18.80;79.80
30379;DHT22;17168;49.164;9.060;2023-05-21T00:27:00;18.70;80.20
30379;DHT22;17168;49.164;9.060;2023-05-21T00:29:33;18.70;80.40
30379;DHT22;17168;49.164;9.060;2023-05-21T00:32:06;18.60;80.70
30379;DHT22;17168;49.164;9.060;2023-05-21T00:34:38;18.60;81.30
30379;DHT22;17168;49.164;9.060;2023-05-21T00:37:10;18.50;81.80
30379;DHT22;17168;49.164;9.060;2023-05-21T00:39:45;18.50;82.40
30379;DHT22;17168;49.164;9.060;2023-05-21T00:42:17;18.50;83.00
30379;DHT22;17168;49.164;9.060;2023-05-21T00:44:50;18.40;83.10
30379;DHT22;17168;49.164;9.060;2023-05-21T00:47:22;18.40;83.60
30379;DHT22;17168;49.164;9.060;2023-05-21T00:49:54;18.40;84.30
30379;DHT22;17168;49.164;9.060;2023-05-21T00:52:27;18.30;84.40
30379;DHT22;17168;49.164;9.060;2023-05-21T00:55:02;18.30;85.00
30379;DHT22;17168;49.164;9.060;2023-05-21T00:57:35;18.30;85.60
30379;DHT22;17168;49.164;9.060;2023-05-21T01:00:09;18.20;85.90
30379;DHT22;17168;49.164;9.060;2023-05-21T01:02:42;18.20;86.10
30379;DHT22;17168;49.164;9.060;2023-05-21T01:05:15;18.20;86.20
30379;DHT22;17168;49.164;9.060;2023-05-21T01:07:48;18.20;86.20
30379;DHT22;17168;49.164;9.060;2023-05-21T01:10:23;18.20;86.40
30379;DHT22;17168;49.164;9.060;2023-05-21T01:12:57;18.20;86.60
30379;DHT22;17168;49.164;9.060;2023-05-21T01:15:30;18.20;86.80
30379;DHT22;17168;49.164;9.060;2023-05-21T01:18:02;18.20;86.90
30379;DHT22;17168;49.164;9.060;2023-05-21T01:20:34;18.20;87.10
30379;DHT22;17168;49.164;9.060;2023-05-21T01:23:11;18.20;87.20
30379;DHT22;17168;49.164;9.060;2023-05-21T01:25:43;18.20;87.30
30379;DHT22;17168;49.164;9.060;2023-05-21T01:28:15;18.10;87.40
30379;DHT22;17168;49.164;9.060;2023-05-21T01:30:48;18.10;87.40
30379;DHT22;17168;49.164;9.060;2023-05-21T01:33:26;18.10;87.60
30379;DHT22;17168;49.164;9.060;2023-05-21T01:36:04;18.10;88.10
30379;DHT22;17168;49.164;9.060;2023-05-21T01:38:46;18.10;88.70
30379;DHT22;17168;49.164;9.060;2023-05-21T01:41:20;18.00;89.10
30379;DHT22;17168;49.164;9.060;2023-05-21T01:43:55;18.00;89.50
30379;DHT22;17168;49.164;9.060;2023-05-21T01:46:29;17.90;89.70
30379;DHT22;17168;49.164;9.060;2023-05-21T01:49:02;17.90;89.90
30379;DHT22;17168;49.164;9.060;2023-05-21T01:51:35;17.90;90.10
30379;DHT22;17168;49.164;9.060;2023-05-21T01:54:10;17.90;90.20
30379;DHT22;17168;49.164;9.060;2023-05-21T01:56:42;17.90;90.40
30379;DHT22;17168;49.164;9.060;2023-05-21T01:59:14;17.80;90.60
30379;DHT22;17168;49.164;9.060;2023-05-21T02:01:48;17.80;90.80
30379;DHT22;17168;49.164;9.060;2023-05-21T02:04:20;17.80;91.00
30379;DHT22;17168;49.164;9.060;2023-05-21T02:06:52;17.80;91.00
30379;DHT22;17168;49.164;9.060;2023-05-21T02:09:28;17.80;91.10
30379;DHT22;17168;49.164;9.060;2023-05-21T02:12:01;17.80;91.00
30379;DHT22;17168;49.164;9.060;2023-05-21T02:14:33;17.80;91.10
30379;DHT22;17168;49.164;9.060;2023-05-21T02:17:05;17.80;91.10
30379;DHT22;17168;49.164;9.060;2023-05-21T02:19:38;17.80;91.10
30379;DHT22;17168;49.164;9.060;2023-05-21T02:22:11;17.80;91.20
30379;DHT22;17168;49.164;9.060;2023-05-21T02:24:45;17.80;91.40
30379;DHT22;17168;49.164;9.060;2023-05-21T02:27:18;17.80;91.40
30379;DHT22;17168;49.164;9.060;2023-05-21T02:29:50;17.70;91.50
30379;DHT22;17168;49.164;9.060;2023-05-21T02:32:22;17.70;91.60
30379;DHT22;17168;49.164;9.060;2023-05-21T02:34:54;17.70;91.70
30379;DHT22;17168;49.164;9.060;2023-05-21T02:37:27;17.70;91.90
30379;DHT22;17168;49.164;9.060;2023-05-21T02:40:03;17.60;92.20
30379;DHT22;17168;49.164;9.060;2023-05-21T02:42:39;17.60;92.40
30379;DHT22;17168;49.164;9.060;2023-05-21T02:45:12;17.60;92.50
30379;DHT22;17168;49.164;9.060;2023-05-21T02:47:44;17.60;92.60
30379;DHT22;17168;49.164;9.060;2023-05-21T02:50:16;17.50;92.70
30379;DHT22;17168;49.164;9.060;2023-05-21T02:52:48;17.50;92.80
30379;DHT22;17168;49.164;9.060;2023-05-21T02:55:24;17.50;92.90
30379;DHT22;17168;49.164;9.060;2023-05-21T02:57:56;17.50;93.10
30379;DHT22;17168;49.164;9.060;2023-05-21T03:00:28;17.50;93.20
30379;DHT22;17168;49.164;9.060;2023-05-21T03:03:00;17.50;93.40
30379;DHT22;17168;49.164;9.060;2023-05-21T03:05:33;17.40;93.60
30379;DHT22;17168;49.164;9.060;2023-05-21T03:08:05;17.40;93.70
30379;DHT22;17168;49.164;9.060;2023-05-21T03:10:40;17.40;93.80
30379;DHT22;17168;49.164;9.060;2023-05-21T03:13:12;17.40;93.80
30379;DHT22;17168;49.164;9.060;2023-05-21T03:15:44;17.40;93.90
30379;DHT22;17168;49.164;9.060;2023-05-21T03:18:17;17.40;93.90
30379;DHT22;17168;49.164;9.060;2023-05-21T03:20:49;17.40;93.90
30379;DHT22;17168;49.164;9.060;2023-05-21T03:23:21;17.40;94.00
30379;DHT22;17168;49.164;9.060;2023-05-21T03:25:56;17.40;94.10
30379;DHT22;17168;49.164;9.060;2023-05-21T03:28:28;17.30;94.20
30379;DHT22;17168;49.164;9.060;2023-05-21T03:31:01;17.30;94.30
30379;DHT22;17168;49.164;9.060;2023-05-21T03:33:33;17.30;94.40
30379;DHT22;17168;49.164;9.060;2023-05-21T03:36:05;17.30;94.50
30379;DHT22;17168;49.164;9.060;2023-05-21T03:38:38;17.30;94.60
30379;DHT22;17168;49.164;9.060;2023-05-21T03:41:12;17.30;94.70
30379;DHT22;17168;49.164;9.060;2023-05-21T03:43:44;17.30;94.80
30379;DHT22;17168;49.164;9.060;2023-05-21T03:46:17;17.30;94.90
30379;DHT22;17168;49.164;9.060;2023-05-21T03:48:49;17.30;95.10
30379;DHT22;17168;49.164;9.060;2023-05-21T03:51:21;17.30;95.10
30379;DHT22;17168;49.164;9.060;2023-05-21T03:53:53;17.30;95.20
30379;DHT22;17168;49.164;9.060;2023-05-21T03:56:28;17.30;95.20
30379;DHT22;17168;49.164;9.060;2023-05-21T03:59:00;17.30;95.30
30379;DHT22;17168;49.164;9.060;2023-05-21T04:01:33;17.20;95.40
30379;DHT22;17168;49.164;9.060;2023-05-21T04:04:05;17.20;95.50
30379;DHT22;17168;49.164;9.060;2023-05-21T04:06:38;17.30;95.60
30379;DHT22;17168;49.164;9.060;2023-05-21T04:09:13;17.30;95.70
30379;DHT22;17168;49.164;9.060;2023-05-21T04:11:47;17.30;95.80
30379;DHT22;17168;49.164;9.060;2023-05-21T04:14:21;17.20;95.90
30379;DHT22;17168;49.164;9.060;2023-05-21T04:16:53;17.30;95.90
30379;DHT22;17168;49.164;9.060;2023-05-21T04:19:25;17.30;96.00
30379;DHT22;17168;49.164;9.060;2023-05-21T04:21:57;17.20;96.00
30379;DHT22;17168;49.164;9.060;2023-05-21T04:24:30;17.30;96.00
30379;DHT22;17168;49.164;9.060;2023-05-21T04:27:05;17.30;96.20
30379;DHT22;17168;49.164;9.060;2023-05-21T04:29:37;17.30;96.20
30379;DHT22;17168;49.164;9.060;2023-05-21T04:32:13;17.30;96.30
30379;DHT22;17168;49.164;9.060;2023-05-21T04:34:46;17.30;96.50
30379;DHT22;17168;49.164;9.060;2023-05-21T04:37:18;17.30;96.60
30379;DHT22;17168;49.164;9.060;2023-05-21T04:39:50;17.20;96.60
30379;DHT22;17168;49.164;9.060;2023-05-21T04:42:25;17.30;96.70
30379;DHT22;17168;49.164;9.060;2023-05-21T04:44:57;17.30;96.70
30379;DHT22;17168;49.164;9.060;2023-05-21T04:47:30;17.30;96.80
30379;DHT22;17168;49.164;9.060;2023-05-21T04:50:07;17.30;96.80
30379;DHT22;17168;49.164;9.060;2023-05-21T04:52:40;17.30;96.80
30379;DHT22;17168;49.164;9.060;2023-05-21T04:55:12;17.30;96.90
30379;DHT22;17168;49.164;9.060;2023-05-21T04:57:47;17.30;96.90
30379;DHT22;17168;49.164;9.060;2023-05-21T05:00:20;17.30;96.80
30379;DHT22;17168;49.164;9.060;2023-05-21T05:02:53;17.40;96.90
30379;DHT22;17168;49.164;9.060;2023-05-21T05:05:25;17.40;96.90
30379;DHT22;17168;49.164;9.060;2023-05-21T05:07:58;17.40;96.90
30379;DHT22;17168;49.164;9.060;2023-05-21T05:10:30;17.40;97.00
30379;DHT22;17168;49.164;9.060;2023-05-21T05:13:05;17.40;96.90
30379;DHT22;17168;49.164;9.060;2023-05-21T05:15:37;17.40;97.00
30379;DHT22;17168;49.164;9.060;2023-05-21T05:18:09;17.40;97.00
30379;DHT22;17168;49.164;9.060;2023-05-21T05:20:43;17.50;97.00
30379;DHT22;17168;49.164;9.060;2023-05-21T05:23:15;17.50;97.00
30379;DHT22;17168;49.164;9.060;2023-05-21T05:25:47;17.50;97.00
30379;DHT22;17168;49.164;9.060;2023-05-21T05:28:22;17.50;97.00
30379;DHT22;17168;49.164;9.060;2023-05-21T05:30:54;17.50;96.90
30379;DHT22;17168;49.164;9.060;2023-05-21T05:33:26;17.50;96.90
30379;DHT22;17168;49.164;9.060;2023-05-21T05:35:58;17.50;97.00
30379;DHT22;17168;49.164;9.060;2023-05-21T05:38:30;17.60;97.00
30379;DHT22;17168;49.164;9.060;2023-05-21T05:41:03;17.60;97.00
30379;DHT22;17168;49.164;9.060;2023-05-21T05:43:38;17.60;97.00
30379;DHT22;17168;49.164;9.060;2023-05-21T05:46:10;17.60;97.00
30379;DHT22;17168;49.164;9.060;2023-05-21T05:48:42;17.60;97.10
30379;DHT22;17168;49.164;9.060;2023-05-21T05:51:14;17.60;97.10
30379;DHT22;17168;49.164;9.060;2023-05-21T05:53:48;17.60;97.10
30379;DHT22;17168;49.164;9.060;2023-05-21T05:56:20;17.70;97.20
30379;DHT22;17168;49.164;9.060;2023-05-21T05:58:55;17.70;97.30
30379;DHT22;17168;49.164;9.060;2023-05-21T06:01:27;17.70;97.30
30379;DHT22;17168;49.164;9.060;2023-05-21T06:03:59;17.70;97.30
30379;DHT22;17168;49.164;9.060;2023-05-21T06:06:31;17.70;97.30
30379;DHT22;17168;49.164;9.060;2023-05-21T06:09:05;17.80;97.30
30379;DHT22;17168;49.164;9.060;2023-05-21T06:11:38;17.80;97.20
30379;DHT22;17168;49.164;9.060;2023-05-21T06:14:12;17.80;97.10
30379;DHT22;17168;49.164;9.060;2023-05-21T06:16:45;17.90;97.10
30379;DHT22;17168;49.164;9.060;2023-05-21T06:19:17;17.90;97.10
30379;DHT22;17168;49.164;9.060;2023-05-21T06:21:49;17.90;97.00
30379;DHT22;17168;49.164;9.060;2023-05-21T06:24:22;17.90;97.00
30379;DHT22;17168;49.164;9.060;2023-05-21T06:26:54;18.00;96.90
30379;DHT22;17168;49.164;9.060;2023-05-21T06:29:28;18.00;96.90
30379;DHT22;17168;49.164;9.060;2023-05-21T06:32:01;18.00;96.90
30379;DHT22;17168;49.164;9.060;2023-05-21T06:34:33;18.10;96.90
30379;DHT22;17168;49.164;9.060;2023-05-21T06:37:05;18.10;96.80
30379;DHT22;17168;49.164;9.060;2023-05-21T06:39:37;18.20;96.70
30379;DHT22;17168;49.164;9.060;2023-05-21T06:42:09;18.20;96.60
30379;DHT22;17168;49.164;9.060;2023-05-21T06:44:44;18.30;96.50
30379;DHT22;17168;49.164;9.060;2023-05-21T06:47:16;18.30;96.40
30379;DHT22;17168;49.164;9.060;2023-05-21T06:49:48;18.40;96.20
30379;DHT22;17168;49.164;9.060;2023-05-21T06:52:20;18.40;96.40
30379;DHT22;17168;49.164;9.060;2023-05-21T06:54:53;18.50;96.10
30379;DHT22;17168;49.164;9.060;2023-05-21T06:57:25;18.60;96.10
30379;DHT22;17168;49.164;9.060;2023-05-21T07:00:00;18.60;95.90
30379;DHT22;17168;49.164;9.060;2023-05-21T07:02:32;18.70;95.70
30379;DHT22;17168;49.164;9.060;2023-05-21T07:05:08;18.70;95.40
30379;DHT22;17168;49.164;9.060;2023-05-21T07:07:40;18.80;95.10
30379;DHT22;17168;49.164;9.060;2023-05-21T07:10:12;18.90;94.90
30379;DHT22;17168;49.164;9.060;2023-05-21T07:12:44;19.00;94.80
30379;DHT22;17168;49.164;9.060;2023-05-21T07:15:19;19.00;94.60
30379;DHT22;17168;49.164;9.060;2023-05-21T07:17:52;19.10;94.50
30379;DHT22;17168;49.164;9.060;2023-05-21T07:20:24;19.20;94.20
30379;DHT22;17168;49.164;9.060;2023-05-21T07:22:56;19.30;93.90
30379;DHT22;17168;49.164;9.060;2023-05-21T07:25:29;19.30;93.60
30379;DHT22;17168;49.164;9.060;2023-05-21T07:28:01;19.40;93.20
30379;DHT22;17168;49.164;9.060;2023-05-21T07:30:39;19.50;92.80
30379;DHT22;17168;49.164;9.060;2023-05-21T07:33:11;19.50;92.70
30379;DHT22;17168;49.164;9.060;2023-05-21T07:35:43;19.60;92.30
30379;DHT22;17168;49.164;9.060;2023-05-21T07:38:15;19.60;91.90
30379;DHT22;17168;49.164;9.060;2023-05-21T07:40:48;19.70;91.50
30379;DHT22;17168;49.164;9.060;2023-05-21T07:43:20;19.80;91.20
30379;DHT22;17168;49.164;9.060;2023-05-21T07:45:55;19.80;90.60
30379;DHT22;17168;49.164;9.060;2023-05-21T07:48:27;19.90;90.20
30379;DHT22;17168;49.164;9.060;2023-05-21T07:51:00;19.90;90.00
30379;DHT22;17168;49.164;9.060;2023-05-21T07:53:32;20.00;89.20
30379;DHT22;17168;49.164;9.060;2023-05-21T07:56:05;20.00;89.00
30379;DHT22;17168;49.164;9.060;2023-05-21T07:58:37;20.10;88.70
30379;DHT22;17168;49.164;9.060;2023-05-21T08:01:14;20.10;88.20
30379;DHT22;17168;49.164;9.060;2023-05-21T08:03:46;20.20;87.50
30379;DHT22;17168;49.164;9.060;2023-05-21T08:06:18;20.30;87.10
30379;DHT22;17168;49.164;9.060;2023-05-21T08:08:50;20.30;86.40
30379;DHT22;17168;49.164;9.060;2023-05-21T08:11:23;20.40;85.70
30379;DHT22;17168;49.164;9.060;2023-05-21T08:13:55;20.40;85.40
30379;DHT22;17168;49.164;9.060;2023-05-21T08:16:30;20.40;85.10
30379;DHT22;17168;49.164;9.060;2023-05-21T08:19:02;20.50;85.10
30379;DHT22;17168;49.164;9.060;2023-05-21T08:21:35;20.60;84.90
30379;DHT22;17168;49.164;9.060;2023-05-21T08:24:07;20.60;84.40
30379;DHT22;17168;49.164;9.060;2023-05-21T08:26:39;20.60;84.20
30379;DHT22;17168;49.164;9.060;2023-05-21T08:29:12;20.70;84.10
30379;DHT22;17168;49.164;9.060;2023-05-21T08:31:46;20.70;84.20
30379;DHT22;17168;49.164;9.060;2023-05-21T08:34:19;20.80;84.20
30379;DHT22;17168;49.164;9.060;2023-05-21T08:36:51;20.80;83.60
30379;DHT22;17168;49.164;9.060;2023-05-21T08:39:24;20.90;83.20
30379;DHT22;17168;49.164;9.060;2023-05-21T08:42:01;20.90;82.70
30379;DHT22;17168;49.164;9.060;2023-05-21T08:44:37;21.00;82.00
30379;DHT22;17168;49.164;9.060;2023-05-21T08:47:15;21.00;81.70
30379;DHT22;17168;49.164;9.060;2023-05-21T08:49:50;21.10;81.60
30379;DHT22;17168;49.164;9.060;2023-05-21T08:52:23;21.20;81.60
30379;DHT22;17168;49.164;9.060;2023-05-21T08:54:57;21.20;81.20
30379;DHT22;17168;49.164;9.060;2023-05-21T08:57:30;21.30;81.00
30379;DHT22;17168;49.164;9.060;2023-05-21T09:00:04;21.30;80.50
30379;DHT22;17168;49.164;9.060;2023-05-21T09:02:40;21.40;80.10
30379;DHT22;17168;49.164;9.060;2023-05-21T09:05:15;21.50;80.00
30379;DHT22;17168;49.164;9.060;2023-05-21T09:07:54;21.50;79.40
30379;DHT22;17168;49.164;9.060;2023-05-21T09:10:35;21.60;79.20
30379;DHT22;17168;49.164;9.060;2023-05-21T09:13:09;21.70;79.00
30379;DHT22;17168;49.164;9.060;2023-05-21T09:15:41;21.70;78.80
30379;DHT22;17168;49.164;9.060;2023-05-21T09:18:16;21.80;78.90
30379;DHT22;17168;49.164;9.060;2023-05-21T09:20:48;21.80;78.70
30379;DHT22;17168;49.164;9.060;2023-05-21T09:23:20;21.90;78.00
30379;DHT22;17168;49.164;9.060;2023-05-21T09:25:52;21.90;77.40
30379;DHT22;17168;49.164;9.060;2023-05-21T09:28:25;22.00;76.70
30379;DHT22;17168;49.164;9.060;2023-05-21T09:31:02;22.10;76.70
30379;DHT22;17168;49.164;9.060;2023-05-21T09:33:38;22.10;75.20
30379;DHT22;17168;49.164;9.060;2023-05-21T09:36:17;22.20;75.50
30379;DHT22;17168;49.164;9.060;2023-05-21T09:38:51;22.20;75.10
30379;DHT22;17168;49.164;9.060;2023-05-21T09:41:31;22.30;75.00
30379;DHT22;17168;49.164;9.060;2023-05-21T09:44:04;22.30;72.30
30379;DHT22;17168;49.164;9.060;2023-05-21T09:46:37;22.40;72.30
30379;DHT22;17168;49.164;9.060;2023-05-21T09:49:22;22.40;71.70
30379;DHT22;17168;49.164;9.060;2023-05-21T09:51:59;22.50;71.30
30379;DHT22;17168;49.164;9.060;2023-05-21T09:54:32;22.50;70.90
30379;DHT22;17168;49.164;9.060;2023-05-21T09:57:05;22.60;70.70
30379;DHT22;17168;49.164;9.060;2023-05-21T09:59:37;22.70;70.10
30379;DHT22;17168;49.164;9.060;2023-05-21T10:02:18;22.70;69.90
30379;DHT22;17168;49.164;9.060;2023-05-21T10:04:54;22.80;69.90
30379;DHT22;17168;49.164;9.060;2023-05-21T10:07:31;22.90;69.20
30379;DHT22;17168;49.164;9.060;2023-05-21T10:10:05;23.00;69.00
30379;DHT22;17168;49.164;9.060;2023-05-21T10:12:42;23.10;68.90
30379;DHT22;17168;49.164;9.060;2023-05-21T10:15:15;23.10;68.90
30379;DHT22;17168;49.164;9.060;2023-05-21T10:17:48;23.20;68.70
30379;DHT22;17168;49.164;9.060;2023-05-21T10:20:26;23.30;68.30
30379;DHT22;17168;49.164;9.060;2023-05-21T10:22:59;23.40;68.00
30379;DHT22;17168;49.164;9.060;2023-05-21T10:25:36;23.50;68.00
30379;DHT22;17168;49.164;9.060;2023-05-21T10:28:08;23.60;67.40
30379;DHT22;17168;49.164;9.060;2023-05-21T10:30:41;23.70;66.90
30379;DHT22;17168;49.164;9.060;2023-05-21T10:33:14;23.80;66.90
30379;DHT22;17168;49.164;9.060;2023-05-21T10:35:50;23.90;66.60
30379;DHT22;17168;49.164;9.060;2023-05-21T10:38:24;24.10;66.50
30379;DHT22;17168;49.164;9.060;2023-05-21T10:40:56;24.10;66.00
30379;DHT22;17168;49.164;9.060;2023-05-21T10:43:44;24.30;66.10
30379;DHT22;17168;49.164;9.060;2023-05-21T10:46:31;24.30;65.20
30379;DHT22;17168;49.164;9.060;2023-05-21T10:49:25;24.40;65.10
30379;DHT22;17168;49.164;9.060;2023-05-21T10:55:14;24.60;62.30
30379;DHT22;17168;49.164;9.060;2023-05-21T11:00:54;24.80;61.80
30379;DHT22;17168;49.164;9.060;2023-05-21T11:03:27;25.00;61.50
30379;DHT22;17168;49.164;9.060;2023-05-21T11:06:04;25.10;60.60
30379;DHT22;17168;49.164;9.060;2023-05-21T11:08:37;25.20;60.00
30379;DHT22;17168;49.164;9.060;2023-05-21T11:11:42;25.30;59.50
30379;DHT22;17168;49.164;9.060;2023-05-21T11:14:36;25.40;59.40
30379;DHT22;17168;49.164;9.060;2023-05-21T11:17:14;25.50;59.20
30379;DHT22;17168;49.164;9.060;2023-05-21T11:19:52;25.60;59.10
30379;DHT22;17168;49.164;9.060;2023-05-21T11:22:29;25.70;58.80
30379;DHT22;17168;49.164;9.060;2023-05-21T11:25:06;25.80;58.60
30379;DHT22;17168;49.164;9.060;2023-05-21T11:27:42;25.90;58.10
30379;DHT22;17168;49.164;9.060;2023-05-21T11:30:26;26.00;58.50
30379;DHT22;17168;49.164;9.060;2023-05-21T11:33:21;26.10;58.80
30379;DHT22;17168;49.164;9.060;2023-05-21T11:35:57;26.20;58.80
30379;DHT22;17168;49.164;9.060;2023-05-21T11:38:30;26.40;58.60
30379;DHT22;17168;49.164;9.060;2023-05-21T11:41:03;26.50;58.20
30379;DHT22;17168;49.164;9.060;2023-05-21T11:43:42;26.60;57.90
30379;DHT22;17168;49.164;9.060;2023-05-21T11:46:15;26.70;57.70
30379;DHT22;17168;49.164;9.060;2023-05-21T11:48:52;26.80;57.70
30379;DHT22;17168;49.164;9.060;2023-05-21T11:51:24;26.90;57.40
30379;DHT22;17168;49.164;9.060;2023-05-21T11:53:57;27.00;57.30
30379;DHT22;17168;49.164;9.060;2023-05-21T11:56:30;27.10;56.80
30379;DHT22;17168;49.164;9.060;2023-05-21T11:59:12;27.30;56.90
30379;DHT22;17168;49.164;9.060;2023-05-21T12:01:47;27.60;56.50
30379;DHT22;17168;49.164;9.060;2023-05-21T12:04:20;27.80;55.90
30379;DHT22;17168;49.164;9.060;2023-05-21T12:06:52;28.00;55.70
30379;DHT22;17168;49.164;9.060;2023-05-21T12:09:24;28.20;55.60
30379;DHT22;17168;49.164;9.060;2023-05-21T12:11:56;28.40;55.10
30379;DHT22;17168;49.164;9.060;2023-05-21T12:14:31;28.60;54.80
30379;DHT22;17168;49.164;9.060;2023-05-21T12:17:04;28.80;54.80
30379;DHT22;17168;49.164;9.060;2023-05-21T12:19:37;29.00;54.40
30379;DHT22;17168;49.164;9.060;2023-05-21T12:22:10;29.30;53.80
30379;DHT22;17168;49.164;9.060;2023-05-21T12:24:43;29.40;53.50
30379;DHT22;17168;49.164;9.060;2023-05-21T12:27:15;29.70;53.20
30379;DHT22;17168;49.164;9.060;2023-05-21T12:29:52;29.80;52.80
30379;DHT22;17168;49.164;9.060;2023-05-21T12:32:26;29.90;52.70
30379;DHT22;17168;49.164;9.060;2023-05-21T12:34:59;30.00;52.60
30379;DHT22;17168;49.164;9.060;2023-05-21T12:37:32;30.00;52.30
30379;DHT22;17168;49.164;9.060;2023-05-21T12:40:08;30.00;52.40
30379;DHT22;17168;49.164;9.060;2023-05-21T12:42:42;30.00;51.40
30379;DHT22;17168;49.164;9.060;2023-05-21T12:45:18;29.90;51.40
30379;DHT22;17168;49.164;9.060;2023-05-21T12:47:51;29.90;51.20
30379;DHT22;17168;49.164;9.060;2023-05-21T12:50:27;29.90;50.50
30379;DHT22;17168;49.164;9.060;2023-05-21T12:52:59;30.00;50.00
30379;DHT22;17168;49.164;9.060;2023-05-21T12:55:31;30.20;49.70
30379;DHT22;17168;49.164;9.060;2023-05-21T12:58:04;30.40;49.30
30379;DHT22;17168;49.164;9.060;2023-05-21T13:00:43;30.60;48.70
30379;DHT22;17168;49.164;9.060;2023-05-21T13:03:16;30.80;48.10
30379;DHT22;17168;49.164;9.060;2023-05-21T13:05:57;31.00;47.70
30379;DHT22;17168;49.164;9.060;2023-05-21T13:08:31;31.20;47.50
30379;DHT22;17168;49.164;9.060;2023-05-21T13:13:37;31.50;46.90
30379;DHT22;17168;49.164;9.060;2023-05-21T13:16:12;31.70;47.40
30379;DHT22;17168;49.164;9.060;2023-05-21T13:18:44;31.80;47.30
30379;DHT22;17168;49.164;9.060;2023-05-21T13:21:17;31.90;47.20
30379;DHT22;17168;49.164;9.060;2023-05-21T13:23:49;32.00;46.20
30379;DHT22;17168;49.164;9.060;2023-05-21T13:26:24;32.00;46.20
30379;DHT22;17168;49.164;9.060;2023-05-21T13:28:56;32.00;46.30
30379;DHT22;17168;49.164;9.060;2023-05-21T13:31:31;32.00;46.40
30379;DHT22;17168;49.164;9.060;2023-05-21T13:34:03;32.10;46.30
30379;DHT22;17168;49.164;9.060;2023-05-21T13:36:36;32.10;45.90
30379;DHT22;17168;49.164;9.060;2023-05-21T13:39:08;32.00;46.10
30379;DHT22;17168;49.164;9.060;2023-05-21T13:41:41;32.00;46.40
30379;DHT22;17168;49.164;9.060;2023-05-21T13:44:14;32.00;46.50
30379;DHT22;17168;49.164;9.060;2023-05-21T13:47:00;32.00;46.40
30379;DHT22;17168;49.164;9.060;2023-05-21T13:49:32;32.00;45.80
30379;DHT22;17168;49.164;9.060;2023-05-21T13:52:07;32.00;45.50
30379;DHT22;17168;49.164;9.060;2023-05-21T13:54:40;31.90;45.70
30379;DHT22;17168;49.164;9.060;2023-05-21T13:57:13;31.80;45.10
30379;DHT22;17168;49.164;9.060;2023-05-21T13:59:45;31.70;44.50
30379;DHT22;17168;49.164;9.060;2023-05-21T14:02:20;31.70;44.40
30379;DHT22;17168;49.164;9.060;2023-05-21T14:04:53;31.60;44.60
30379;DHT22;17168;49.164;9.060;2023-05-21T14:07:25;31.60;44.80
30379;DHT22;17168;49.164;9.060;2023-05-21T14:09:57;31.60;44.60
30379;DHT22;17168;49.164;9.060;2023-05-21T14:12:29;31.50;44.10
30379;DHT22;17168;49.164;9.060;2023-05-21T14:15:02;31.40;44.10
30379;DHT22;17168;49.164;9.060;2023-05-21T14:17:37;31.30;44.20
30379;DHT22;17168;49.164;9.060;2023-05-21T14:20:11;31.20;44.40
30379;DHT22;17168;49.164;9.060;2023-05-21T14:22:44;31.20;44.60
30379;DHT22;17168;49.164;9.060;2023-05-21T14:25:16;31.10;45.10
30379;DHT22;17168;49.164;9.060;2023-05-21T14:27:48;31.10;45.20
30379;DHT22;17168;49.164;9.060;2023-05-21T14:30:20;31.10;45.00
30379;DHT22;17168;49.164;9.060;2023-05-21T14:32:55;31.10;44.60
30379;DHT22;17168;49.164;9.060;2023-05-21T14:35:28;31.10;44.30
30379;DHT22;17168;49.164;9.060;2023-05-21T14:38:01;31.20;44.40
30379;DHT22;17168;49.164;9.060;2023-05-21T14:40:33;31.20;44.30
30379;DHT22;17168;49.164;9.060;2023-05-21T14:43:05;31.20;44.40
30379;DHT22;17168;49.164;9.060;2023-05-21T14:45:37;31.20;44.60
30379;DHT22;17168;49.164;9.060;2023-05-21T14:48:12;31.20;44.60
30379;DHT22;17168;49.164;9.060;2023-05-21T14:50:44;31.20;44.90
30379;DHT22;17168;49.164;9.060;2023-05-21T14:53:17;31.10;45.20
30379;DHT22;17168;49.164;9.060;2023-05-21T14:55:49;31.10;45.30
30379;DHT22;17168;49.164;9.060;2023-05-21T14:58:21;31.10;45.80
30379;DHT22;17168;49.164;9.060;2023-05-21T15:00:54;31.20;45.90
30379;DHT22;17168;49.164;9.060;2023-05-21T15:03:28;31.20;45.60
30379;DHT22;17168;49.164;9.060;2023-05-21T15:06:01;31.30;45.50
30379;DHT22;17168;49.164;9.060;2023-05-21T15:08:33;31.30;45.90
30379;DHT22;17168;49.164;9.060;2023-05-21T15:11:05;31.30;46.10
30379;DHT22;17168;49.164;9.060;2023-05-21T15:13:38;31.20;46.10
30379;DHT22;17168;49.164;9.060;2023-05-21T15:16:10;31.20;46.60
30379;DHT22;17168;49.164;9.060;2023-05-21T15:18:45;31.20;46.70
30379;DHT22;17168;49.164;9.060;2023-05-21T15:21:18;31.10;46.50
30379;DHT22;17168;49.164;9.060;2023-05-21T15:23:50;31.10;46.20
30379;DHT22;17168;49.164;9.060;2023-05-21T15:26:22;31.10;45.90
30379;DHT22;17168;49.164;9.060;2023-05-21T15:28:56;31.10;46.10
30379;DHT22;17168;49.164;9.060;2023-05-21T15:31:29;31.20;46.30
30379;DHT22;17168;49.164;9.060;2023-05-21T15:34:04;31.20;46.20
30379;DHT22;17168;49.164;9.060;2023-05-21T15:36:37;31.20;45.90
30379;DHT22;17168;49.164;9.060;2023-05-21T15:39:09;31.20;45.80
30379;DHT22;17168;49.164;9.060;2023-05-21T15:41:42;31.20;45.90
30379;DHT22;17168;49.164;9.060;2023-05-21T15:44:15;31.20;46.10
30379;DHT22;17168;49.164;9.060;2023-05-21T15:46:47;31.10;46.20
30379;DHT22;17168;49.164;9.060;2023-05-21T15:49:23;31.10;46.40
30379;DHT22;17168;49.164;9.060;2023-05-21T15:51:55;31.00;46.50
30379;DHT22;17168;49.164;9.060;2023-05-21T15:54:29;30.90;46.60
30379;DHT22;17168;49.164;9.060;2023-05-21T15:57:01;30.80;46.80
30379;DHT22;17168;49.164;9.060;2023-05-21T15:59:33;30.70;47.10
30379;DHT22;17168;49.164;9.060;2023-05-21T16:02:06;30.60;47.20
30379;DHT22;17168;49.164;9.060;2023-05-21T16:04:41;30.50;47.40
30379;DHT22;17168;49.164;9.060;2023-05-21T16:07:13;30.50;47.90
30379;DHT22;17168;49.164;9.060;2023-05-21T16:09:45;30.40;48.00
30379;DHT22;17168;49.164;9.060;2023-05-21T16:12:17;30.30;48.00
30379;DHT22;17168;49.164;9.060;2023-05-21T16:14:50;30.20;48.10
30379;DHT22;17168;49.164;9.060;2023-05-21T16:17:22;30.10;48.20
30379;DHT22;17168;49.164;9.060;2023-05-21T16:19:57;30.00;48.30